Time;durP1;ratioP1;P1;durP2;ratioP2;P2;SDS_P1;SDS_P2;PMS_P1;PMS_P2;Temp;Humidity;BMP_temperature;BMP_pressure;BME280_temperature;BME280_humidity;BME280_pressure;Samples;Min_cycle;Max_cycle;Signal;HPM_P1;HPM_P2
2022/08/27 00:01:44;;;;;;;10.30;9.50;;;;;;;14.97;100.00;96747.84;4965803;28;20618;-55
2022/08/27 00:04:12;;;;;;;14.50;9.80;;;;;;;14.95;100.00;96749.09;4969068;28;20296;-54
2022/08/27 00:06:40;;;;;;;9.97;9.27;;;;;;;14.91;100.00;96743.38;4931516;28;21645;-55
2022/08/27 00:09:09;;;;;;;10.63;9.77;;;;;;;14.99;100.00;96740.44;4938357;28;20234;-55
2022/08/27 00:11:38;;;;;;;10.90;9.87;;;;;;;14.93;100.00;96735.97;4964722;28;20681;-55
2022/08/27 00:14:06;;;;;;;10.73;9.73;;;;;;;14.97;100.00;96747.03;4919777;28;20218;-55
2022/08/27 00:16:35;;;;;;;11.20;9.77;;;;;;;14.93;100.00;96751.97;4966770;28;20468;-54
2022/08/27 00:19:03;;;;;;;11.07;9.67;;;;;;;14.89;100.00;96759.63;4968038;28;20297;-56
2022/08/27 00:21:31;;;;;;;10.50;9.43;;;;;;;14.81;100.00;96757.25;4968716;28;20753;-55
2022/08/27 00:24:00;;;;;;;9.27;8.57;;;;;;;14.69;100.00;96749.13;4965110;28;20788;-55
2022/08/27 00:26:28;;;;;;;8.93;8.20;;;;;;;14.68;100.00;96747.50;4939030;28;20210;-55
2022/08/27 00:28:58;;;;;;;12.50;9.47;;;;;;;14.68;100.00;96746.69;4917759;28;21085;-54
2022/08/27 00:31:26;;;;;;;10.23;9.17;;;;;;;14.65;100.00;96750.63;5005614;28;20253;-53
2022/08/27 00:33:55;;;;;;;10.23;9.33;;;;;;;14.69;100.00;96751.81;5006119;28;20384;-53
2022/08/27 00:36:24;;;;;;;10.60;9.80;;;;;;;14.76;100.00;96749.91;5007291;28;20287;-55
2022/08/27 00:38:53;;;;;;;10.67;9.60;;;;;;;14.83;100.00;96757.84;5003147;28;20733;-54
2022/08/27 00:41:21;;;;;;;9.50;8.70;;;;;;;14.87;100.00;96752.88;4988256;28;20278;-54
2022/08/27 00:43:52;;;;;;;10.77;9.67;;;;;;;14.89;100.00;96753.47;5001661;28;20219;-52
2022/08/27 00:46:28;;;;;;;9.37;8.53;;;;;;;14.93;100.00;96751.16;4963366;28;20500;-53
2022/08/27 00:49:03;;;;;;;10.00;9.00;;;;;;;14.95;100.00;96752.56;5005916;28;20561;-53
2022/08/27 00:51:32;;;;;;;14.00;9.63;;;;;;;14.98;100.00;96749.47;5007541;28;21179;-56
2022/08/27 00:54:01;;;;;;;10.47;9.67;;;;;;;15.00;100.00;96750.06;5000093;28;20609;-53
2022/08/27 00:56:34;;;;;;;11.63;10.43;;;;;;;15.05;100.00;96754.72;4968567;28;20873;-55
2022/08/27 00:59:04;;;;;;;11.00;10.07;;;;;;;15.08;100.00;96756.13;5020009;28;20260;-55
2022/08/27 01:02:17;;;;;;;11.07;10.07;;;;;;;14.99;100.00;96748.44;4957828;28;20255;-52
2022/08/27 01:04:23;;;;;;;11.77;10.77;;;;;;;15.05;100.00;96762.72;4944237;28;20231;-51
2022/08/27 01:06:51;;;;;;;10.30;9.40;;;;;;;15.06;100.00;96761.69;5005160;28;20204;-50
2022/08/27 01:09:19;;;;;;;11.60;9.90;;;;;;;15.10;100.00;96762.06;5010898;28;20731;-49
2022/08/27 01:11:48;;;;;;;10.63;9.70;;;;;;;15.11;100.00;96761.03;4998621;28;20205;-48
2022/08/27 01:14:16;;;;;;;12.77;10.20;;;;;;;15.13;100.00;96764.28;5011436;28;20263;-53
2022/08/27 01:16:49;;;;;;;10.90;9.80;;;;;;;15.16;100.00;96758.50;5005608;28;20288;-54
2022/08/27 01:19:24;;;;;;;11.00;9.93;;;;;;;15.17;100.00;96760.13;4961202;28;20277;-48
2022/08/27 01:21:58;;;;;;;10.70;9.73;;;;;;;15.18;100.00;96759.91;5001765;28;20227;-53
2022/08/27 01:24:35;;;;;;;10.80;10.10;;;;;;;15.15;100.00;96749.69;5006848;28;21367;-54
2022/08/27 01:27:05;;;;;;;14.33;9.73;;;;;;;15.18;100.00;96756.41;5000452;28;20212;-50
2022/08/27 01:29:41;;;;;;;10.37;9.57;;;;;;;15.16;100.00;96759.31;5000849;28;20244;-50
2022/08/27 01:32:12;;;;;;;10.43;9.53;;;;;;;15.12;100.00;96759.97;5003119;28;20208;-46
2022/08/27 01:34:40;;;;;;;12.30;9.07;;;;;;;15.09;100.00;96763.91;4957799;28;20311;-50
2022/08/27 01:37:09;;;;;;;12.17;11.07;;;;;;;15.06;100.00;96764.34;4964554;28;20290;-52
2022/08/27 01:39:39;;;;;;;11.33;10.27;;;;;;;15.00;100.00;96768.75;5000392;28;20313;-53
2022/08/27 01:42:09;;;;;;;12.43;11.33;;;;;;;14.98;100.00;96762.81;5008466;28;20232;-53
2022/08/27 01:44:47;;;;;;;11.23;10.13;;;;;;;14.93;100.00;96767.19;5004960;28;20243;-55
2022/08/27 01:47:16;;;;;;;12.87;11.53;;;;;;;14.88;100.00;96767.81;5003941;28;20264;-52
2022/08/27 01:49:44;;;;;;;11.97;10.97;;;;;;;14.86;100.00;96762.72;4954047;28;20387;-53
2022/08/27 01:52:13;;;;;;;11.40;10.23;;;;;;;14.82;100.00;96755.38;5001153;28;20738;-54
2022/08/27 01:54:43;;;;;;;10.53;9.63;;;;;;;14.74;100.00;96759.16;5004324;28;20872;-51
2022/08/27 01:57:12;;;;;;;13.70;9.20;;;;;;;14.67;100.00;96761.03;5010696;28;20239;-55
2022/08/27 01:59:40;;;;;;;10.87;9.97;;;;;;;14.62;100.00;96759.06;5005720;28;20232;-54
2022/08/27 02:02:10;;;;;;;11.43;10.53;;;;;;;14.67;100.00;96771.72;5009211;28;20554;-54
2022/08/27 02:04:39;;;;;;;12.17;10.17;;;;;;;14.67;100.00;96775.19;4997214;28;20416;-53
2022/08/27 02:07:07;;;;;;;11.87;10.80;;;;;;;14.63;100.00;96771.34;4959597;28;20216;-53
2022/08/27 02:09:35;;;;;;;11.33;10.20;;;;;;;14.81;100.00;96767.09;4969962;28;20944;-53
2022/08/27 02:12:06;;;;;;;12.37;11.27;;;;;;;14.72;100.00;96764.72;5006930;28;20197;-54
2022/08/27 02:14:34;;;;;;;11.97;10.93;;;;;;;14.74;100.00;96765.31;5005606;28;20271;-54
2022/08/27 02:17:02;;;;;;;12.10;11.20;;;;;;;14.72;100.00;96770.06;5009769;28;20235;-50
2022/08/27 02:19:30;;;;;;;11.63;10.23;;;;;;;14.64;100.00;96767.66;5004634;28;20652;-51
2022/08/27 02:21:59;;;;;;;11.97;10.87;;;;;;;14.57;100.00;96762.38;4955284;28;20271;-55
2022/08/27 02:24:28;;;;;;;12.23;11.03;;;;;;;14.52;100.00;96769.38;4999481;28;20474;-54
2022/08/27 02:26:56;;;;;;;11.97;10.87;;;;;;;14.48;100.00;96764.50;5003727;28;20208;-52
2022/08/27 02:29:26;;;;;;;11.57;10.57;;;;;;;14.45;100.00;96764.94;5003840;28;20454;-54
2022/08/27 02:31:54;;;;;;;12.57;11.33;;;;;;;14.47;100.00;96765.53;5006576;28;20941;-52
2022/08/27 02:34:22;;;;;;;11.53;10.53;;;;;;;14.51;100.00;96767.75;4997035;28;20299;-50
2022/08/27 02:36:51;;;;;;;13.17;11.87;;;;;;;14.60;100.00;96772.59;4959397;28;20216;-52
2022/08/27 02:39:19;;;;;;;13.33;11.80;;;;;;;14.66;100.00;96765.56;4994761;28;20712;-52
2022/08/27 02:41:48;;;;;;;12.63;11.43;;;;;;;14.68;100.00;96766.16;5009710;28;20648;-54
2022/08/27 02:44:16;;;;;;;12.40;11.13;;;;;;;14.72;100.00;96764.72;4983939;28;20783;-52
2022/08/27 02:46:45;;;;;;;11.60;10.70;;;;;;;14.77;100.00;96761.38;5006572;28;20207;-54
2022/08/27 02:49:16;;;;;;;11.70;10.60;;;;;;;14.76;100.00;96765.06;5005800;28;20226;-51
2022/08/27 02:51:45;;;;;;;12.13;11.23;;;;;;;14.76;100.00;96760.56;5009980;28;20220;-56
2022/08/27 02:54:13;;;;;;;13.20;11.40;;;;;;;14.74;100.00;96761.81;4949295;28;20295;-52
2022/08/27 02:56:41;;;;;;;11.60;10.70;;;;;;;14.72;100.00;96756.72;4979003;28;20307;-48
2022/08/27 02:59:09;;;;;;;12.13;10.93;;;;;;;14.66;100.00;96759.41;5009305;28;20661;-48
2022/08/27 03:01:37;;;;;;;10.87;9.73;;;;;;;14.58;100.00;96765.84;5008405;28;20200;-49
2022/08/27 03:04:07;;;;;;;11.50;10.53;;;;;;;14.50;100.00;96766.94;5004387;28;20432;-53
2022/08/27 03:06:35;;;;;;;13.13;10.37;;;;;;;14.48;100.00;96758.38;5012286;28;20215;-55
2022/08/27 03:09:04;;;;;;;11.33;10.33;;;;;;;14.27;100.00;96740.94;4943966;28;20233;-52
2022/08/27 03:11:33;;;;;;;10.60;9.80;;;;;;;14.34;100.00;96757.66;4978399;28;20535;-49
2022/08/27 03:14:01;;;;;;;11.47;10.47;;;;;;;14.31;100.00;96766.09;5006855;28;20760;-50
2022/08/27 03:16:29;;;;;;;11.67;10.63;;;;;;;14.28;100.00;96763.88;4980973;28;20313;-54
2022/08/27 03:18:56;;;;;;;13.17;10.27;;;;;;;14.22;100.00;96770.06;5007825;28;20224;-51
2022/08/27 03:21:26;;;;;;;11.27;10.27;;;;;;;14.18;100.00;96770.47;4981817;28;20318;-54
2022/08/27 03:23:54;;;;;;;10.67;9.67;;;;;;;14.10;100.00;96765.44;5004888;28;20650;-54
2022/08/27 03:26:22;;;;;;;11.33;10.20;;;;;;;14.09;100.00;96766.47;4948447;28;20654;-52
2022/08/27 03:28:50;;;;;;;11.53;10.27;;;;;;;14.10;100.00;96762.75;5003606;28;20861;-53
2022/08/27 03:31:25;;;;;;;10.63;9.83;;;;;;;14.04;100.00;96759.13;5003902;28;20270;-54
2022/08/27 03:33:55;;;;;;;11.07;10.07;;;;;;;14.00;100.00;96767.78;5009105;28;20239;-51
2022/08/27 03:36:24;;;;;;;11.53;10.47;;;;;;;13.97;100.00;96770.88;4982966;28;20671;-51
2022/08/27 03:38:53;;;;;;;9.63;8.83;;;;;;;13.94;100.00;96771.31;5004291;28;20256;-50
2022/08/27 03:41:22;;;;;;;13.70;12.50;;;;;;;13.93;100.00;96772.34;4956472;28;20212;-56
2022/08/27 03:44:11;;;;;;;14.97;13.53;;;;;;;13.91;100.00;96750.44;5000424;28;20227;-52
2022/08/27 03:46:48;;;;;;;14.13;12.10;;;;;;;13.99;100.00;96758.16;5006572;28;20212;-52
2022/08/27 03:49:17;;;;;;;14.07;12.80;;;;;;;13.99;100.00;96756.28;5004290;28;20306;-55
2022/08/27 03:51:47;;;;;;;12.93;11.93;;;;;;;13.97;100.00;96749.56;4996895;28;20474;-53
2022/08/27 03:54:17;;;;;;;13.10;11.70;;;;;;;13.86;100.00;96737.75;4972072;28;20798;-52
2022/08/27 03:56:45;;;;;;;12.43;11.43;;;;;;;13.87;100.00;96744.69;4952994;28;20570;-51
2022/08/27 03:59:14;;;;;;;12.53;11.10;;;;;;;13.87;100.00;96748.19;4999418;28;20700;-54
2022/08/27 04:01:42;;;;;;;12.87;11.87;;;;;;;13.88;100.00;96749.00;4978314;28;20266;-54
2022/08/27 04:04:11;;;;;;;12.23;11.13;;;;;;;13.83;100.00;96736.34;4995338;28;20300;-53
2022/08/27 04:06:40;;;;;;;12.63;10.73;;;;;;;13.88;100.00;96743.66;4997708;28;20201;-56
2022/08/27 04:09:08;;;;;;;12.97;11.87;;;;;;;13.88;100.00;96751.66;4980193;28;20724;-52
2022/08/27 04:11:38;;;;;;;12.57;11.30;;;;;;;13.81;100.00;96734.91;4932120;28;20747;-54
2022/08/27 04:14:06;;;;;;;13.67;12.37;;;;;;;13.82;100.00;96736.56;5000427;28;20251;-56
2022/08/27 04:16:54;;;;;;;12.60;11.47;;;;;;;13.75;100.00;96740.06;4982118;28;20200;-53
2022/08/27 04:19:23;;;;;;;13.07;11.77;;;;;;;13.76;100.00;96740.88;4979120;28;20422;-57
2022/08/27 04:21:59;;;;;;;12.00;10.97;;;;;;;13.74;100.00;96750.94;5004386;28;20523;-56
2022/08/27 04:24:27;;;;;;;13.77;11.80;;;;;;;13.75;100.00;96752.56;4977977;28;20372;-55
2022/08/27 04:26:57;;;;;;;14.07;12.63;;;;;;;13.86;100.00;96759.06;4955832;28;20217;-55
2022/08/27 04:29:25;;;;;;;14.37;12.57;;;;;;;13.83;100.00;96765.63;5002316;28;20528;-54
2022/08/27 04:31:54;;;;;;;15.23;13.40;;;;;;;13.86;100.00;96762.53;4985632;28;20212;-51
2022/08/27 04:34:23;;;;;;;14.83;13.33;;;;;;;13.88;100.00;96764.97;4996419;28;20566;-54
2022/08/27 04:36:52;;;;;;;16.40;13.93;;;;;;;13.94;100.00;96779.28;5006946;28;20258;-49
2022/08/27 04:39:20;;;;;;;14.67;13.27;;;;;;;13.92;100.00;96766.16;4984053;28;20921;-56
2022/08/27 04:41:49;;;;;;;15.77;14.20;;;;;;;13.98;100.00;96762.66;4960433;28;20637;-57
2022/08/27 04:44:19;;;;;;;24.53;15.00;;;;;;;14.03;100.00;96767.34;5005195;28;20285;-54
2022/08/27 04:46:49;;;;;;;15.30;13.83;;;;;;;14.04;100.00;96764.47;4983232;28;20747;-50
2022/08/27 04:49:17;;;;;;;16.10;14.50;;;;;;;14.09;100.00;96765.66;4987127;28;20403;-53
2022/08/27 04:51:46;;;;;;;15.27;13.80;;;;;;;14.23;100.00;96755.72;4987340;28;20221;-54
2022/08/27 04:54:15;;;;;;;15.47;13.90;;;;;;;14.31;100.00;96764.22;5000266;28;20345;-56
2022/08/27 04:56:49;;;;;;;15.77;13.90;;;;;;;14.38;100.00;96763.34;4971994;28;20400;-54
2022/08/27 04:59:19;;;;;;;13.37;12.27;;;;;;;14.44;100.00;96763.31;4972943;28;20914;-55
2022/08/27 05:01:48;;;;;;;13.03;12.13;;;;;;;14.49;100.00;96762.66;5001428;28;20624;-52
2022/08/27 05:04:18;;;;;;;12.17;11.17;;;;;;;14.56;100.00;96759.91;4986940;28;20783;-57
2022/08/27 05:06:48;;;;;;;13.57;12.57;;;;;;;14.53;100.00;96763.84;5003645;28;20283;-53
2022/08/27 05:09:17;;;;;;;13.83;12.63;;;;;;;14.67;100.00;96761.88;4990902;28;20241;-54
2022/08/27 05:11:47;;;;;;;14.10;12.90;;;;;;;14.66;100.00;96762.09;4978703;28;20221;-52
2022/08/27 05:14:15;;;;;;;13.40;12.30;;;;;;;14.80;100.00;96765.47;4968991;28;20795;-51
2022/08/27 05:16:46;;;;;;;14.57;13.23;;;;;;;14.95;100.00;96762.44;4947342;28;20679;-52
2022/08/27 05:19:14;;;;;;;12.47;11.47;;;;;;;15.05;100.00;96768.88;4967495;28;20236;-49
2022/08/27 05:21:46;;;;;;;14.03;12.87;;;;;;;15.22;100.00;96770.94;4980359;28;20298;-52
2022/08/27 05:24:15;;;;;;;15.83;14.43;;;;;;;15.33;100.00;96766.72;4985915;28;21009;-54
2022/08/27 05:26:43;;;;;;;15.87;14.60;;;;;;;15.31;100.00;96763.44;4981964;28;20353;-52
2022/08/27 05:29:12;;;;;;;13.97;12.67;;;;;;;15.40;100.00;96763.97;5006903;28;20302;-54
2022/08/27 05:31:41;;;;;;;13.03;11.97;;;;;;;15.61;100.00;96765.31;4960264;28;20240;-49
2022/08/27 05:34:11;;;;;;;12.73;11.73;;;;;;;15.75;100.00;96757.94;5003192;28;20310;-50
2022/08/27 05:36:51;;;;;;;13.07;11.87;;;;;;;16.08;100.00;96753.16;4991429;28;20295;-53
2022/08/27 05:39:20;;;;;;;12.97;11.90;;;;;;;16.23;100.00;96747.38;4988942;28;20232;-52
2022/08/27 05:41:48;;;;;;;11.93;10.83;;;;;;;16.40;100.00;96744.84;4987640;28;21174;-51
2022/08/27 05:44:16;;;;;;;12.73;11.63;;;;;;;16.63;100.00;96736.00;5000964;28;20250;-52
2022/08/27 05:47:04;;;;;;;12.77;11.47;;;;;;;16.78;100.00;96727.50;4959701;28;20316;-51
2022/08/27 05:49:34;;;;;;;11.40;10.30;;;;;;;16.90;100.00;96724.81;4982242;28;20257;-48
2022/08/27 05:52:03;;;;;;;11.80;10.60;;;;;;;17.06;100.00;96729.44;5005305;28;20201;-55
2022/08/27 05:54:31;;;;;;;10.70;9.90;;;;;;;17.35;100.00;96726.78;4984452;28;20798;-50
2022/08/27 05:56:59;;;;;;;10.70;9.90;;;;;;;17.52;100.00;96730.56;4982166;28;20739;-49
2022/08/27 06:02:21;;;;;;;11.70;10.70;;;;;;;17.82;100.00;96727.59;4919142;28;21193;-53
2022/08/27 06:04:52;;;;;;;10.40;9.60;;;;;;;18.00;100.00;96721.22;4948059;28;20312;-51
2022/08/27 06:07:20;;;;;;;10.83;9.97;;;;;;;17.93;100.00;96718.69;4958916;28;20753;-53
2022/08/27 06:09:48;;;;;;;10.37;9.47;;;;;;;18.04;100.00;96710.84;4949535;28;20233;-50
2022/08/27 06:12:17;;;;;;;11.70;10.80;;;;;;;17.86;100.00;96718.03;4945915;28;20209;-52
2022/08/27 06:14:45;;;;;;;11.07;10.30;;;;;;;17.68;100.00;96718.25;4965573;28;20320;-53
2022/08/27 06:17:13;;;;;;;10.60;9.63;;;;;;;17.82;100.00;96714.22;4964327;28;20248;-50
2022/08/27 06:19:41;;;;;;;10.37;9.57;;;;;;;17.48;100.00;96716.81;4918438;28;20300;-52
2022/08/27 06:22:11;;;;;;;10.60;9.67;;;;;;;17.38;100.00;96705.94;4963045;28;20731;-51
2022/08/27 06:24:40;;;;;;;11.37;10.57;;;;;;;17.43;100.00;96725.59;4973276;28;20288;-50
2022/08/27 06:27:10;;;;;;;12.30;11.27;;;;;;;17.44;100.00;96723.72;4935022;28;20245;-51
2022/08/27 06:29:39;;;;;;;14.40;13.13;;;;;;;17.65;100.00;96732.94;4972981;28;20829;-50
2022/08/27 06:32:07;;;;;;;11.77;10.87;;;;;;;17.68;100.00;96729.78;4966652;28;20242;-49
2022/08/27 06:34:36;;;;;;;12.00;11.00;;;;;;;17.59;100.00;96734.69;4923287;28;20233;-56
2022/08/27 06:37:04;;;;;;;10.87;10.17;;;;;;;17.56;100.00;96740.53;4968619;28;20206;-56
2022/08/27 06:39:35;;;;;;;10.63;9.63;;;;;;;17.58;100.00;96748.34;5008002;28;20255;-52
2022/08/27 06:42:05;;;;;;;10.87;9.97;;;;;;;17.45;100.00;96752.94;4983632;28;20216;-52
2022/08/27 06:44:33;;;;;;;10.97;9.43;;;;;;;17.58;100.00;96748.34;5005389;28;20495;-53
2022/08/27 06:47:03;;;;;;;10.30;9.57;;;;;;;17.52;100.00;96754.66;5003681;28;20283;-50
2022/08/27 06:49:32;;;;;;;11.37;10.47;;;;;;;17.48;100.00;96757.00;4965143;28;20899;-52
2022/08/27 06:52:00;;;;;;;10.20;9.40;;;;;;;17.44;100.00;96764.72;5006235;28;20219;-46
2022/08/27 06:54:28;;;;;;;10.73;9.83;;;;;;;17.53;100.00;96767.81;5011815;28;20908;-50
2022/08/27 06:56:59;;;;;;;12.20;11.00;;;;;;;17.63;100.00;96764.50;4990045;28;20251;-49
2022/08/27 06:59:27;;;;;;;15.13;13.83;;;;;;;17.73;100.00;96758.53;5005442;28;20307;-51
2022/08/27 07:01:55;;;;;;;14.23;13.10;;;;;;;17.75;100.00;96754.53;5003795;28;20228;-50
2022/08/27 07:04:25;;;;;;;14.70;13.40;;;;;;;17.86;100.00;96762.78;4961628;28;20217;-52
2022/08/27 07:07:00;;;;;;;12.80;11.57;;;;;;;18.07;100.00;96761.31;5001267;28;20690;-48
2022/08/27 07:09:30;;;;;;;13.27;12.07;;;;;;;18.31;100.00;96758.44;5005364;28;20213;-49
2022/08/27 07:12:01;;;;;;;11.53;10.63;;;;;;;18.52;100.00;96759.56;5009289;28;20660;-48
2022/08/27 07:14:29;;;;;;;11.30;10.50;;;;;;;18.62;100.00;96758.91;4994290;28;20543;-53
2022/08/27 07:17:05;;;;;;;11.67;10.70;;;;;;;18.80;100.00;96761.34;5007841;28;20227;-50
2022/08/27 07:19:38;;;;;;;10.80;9.90;;;;;;;18.44;100.00;96760.81;4961302;28;20239;-54
2022/08/27 07:22:08;;;;;;;11.93;11.00;;;;;;;18.45;100.00;96767.81;5002344;28;20201;-48
2022/08/27 07:24:36;;;;;;;11.90;10.80;;;;;;;18.51;100.00;96766.81;4953079;28;20298;-49
2022/08/27 07:27:06;;;;;;;12.87;11.77;;;;;;;18.66;100.00;96760.88;5005860;28;20636;-53
2022/08/27 07:29:34;;;;;;;12.73;11.57;;;;;;;18.39;100.00;96776.00;4983550;28;20235;-53
2022/08/27 07:32:06;;;;;;;12.03;11.13;;;;;;;18.50;100.00;96781.28;5002312;28;20264;-50
2022/08/27 07:34:39;;;;;;;12.30;11.07;;;;;;;18.58;100.00;96777.38;4991747;28;20818;-48
2022/08/27 07:37:09;;;;;;;11.10;10.20;;;;;;;18.73;100.00;96760.66;5002955;28;20296;-45
2022/08/27 07:39:40;;;;;;;11.97;10.90;;;;;;;18.94;100.00;96769.84;4963450;28;20256;-48
2022/08/27 07:44:55;;;;;;;12.90;11.70;;;;;;;19.21;100.00;96774.50;5006567;28;20684;-53
2022/08/27 07:47:23;;;;;;;12.10;11.10;;;;;;;20.10;100.00;96778.94;4987600;28;20500;-52
2022/08/27 07:49:51;;;;;;;12.73;11.70;;;;;;;20.36;100.00;96781.88;4995779;28;20232;-52
2022/08/27 07:52:19;;;;;;;13.50;12.03;;;;;;;20.52;100.00;96780.91;4999369;28;20295;-52
2022/08/27 07:54:53;;;;;;;13.60;12.40;;;;;;;20.95;100.00;96780.94;5004770;28;20671;-49
2022/08/27 07:57:22;;;;;;;12.70;11.53;;;;;;;21.53;100.00;96782.00;4950775;28;20443;-53
2022/08/27 07:59:51;;;;;;;13.70;12.53;;;;;;;21.25;100.00;96775.94;4972238;28;20520;-48
2022/08/27 08:02:21;;;;;;;12.83;11.73;;;;;;;21.64;100.00;96778.28;5001614;28;20675;-55
2022/08/27 08:04:50;;;;;;;13.17;11.87;;;;;;;21.17;100.00;96779.94;4992596;28;20208;-56
2022/08/27 08:07:18;;;;;;;13.77;12.57;;;;;;;20.87;100.00;96786.81;5005531;28;20252;-51
2022/08/27 08:09:46;;;;;;;14.40;12.53;;;;;;;20.85;100.00;96780.06;5004169;28;20302;-52
2022/08/27 08:12:14;;;;;;;13.43;12.07;;;;;;;21.38;100.00;96778.16;4933931;28;22767;-52
2022/08/27 08:14:44;;;;;;;13.60;12.20;;;;;;;22.30;100.00;96786.72;4984841;28;20243;-53
2022/08/27 08:17:13;;;;;;;14.03;12.73;;;;;;;22.59;100.00;96778.09;4994374;28;20775;-52
2022/08/27 08:19:41;;;;;;;13.97;12.47;;;;;;;22.20;100.00;96779.44;5000862;28;20710;-52
2022/08/27 08:22:29;;;;;;;13.40;12.00;;;;;;;23.06;100.00;96786.09;4990021;28;21006;-51
2022/08/27 08:24:57;;;;;;;12.60;11.60;;;;;;;22.63;100.00;96781.09;4998038;28;20232;-48
2022/08/27 08:27:26;;;;;;;12.80;11.60;;;;;;;23.06;100.00;96781.53;4943289;28;20846;-51
2022/08/27 08:29:56;;;;;;;12.40;10.93;;;;;;;23.36;100.00;96785.25;4998874;28;20331;-51
2022/08/27 08:32:24;;;;;;;12.80;11.63;;;;;;;22.10;100.00;96780.25;4993673;28;20208;-54
2022/08/27 08:34:52;;;;;;;11.87;10.87;;;;;;;21.91;100.00;96795.31;4997503;28;20260;-45
2022/08/27 08:37:20;;;;;;;12.27;11.27;;;;;;;21.95;100.00;96802.63;5004143;28;20294;-52
2022/08/27 08:39:48;;;;;;;13.33;12.27;;;;;;;21.62;100.00;96799.25;4999067;28;20224;-52
2022/08/27 08:42:28;;;;;;;14.00;12.83;;;;;;;21.23;100.00;96799.66;4958601;28;20555;-55
2022/08/27 08:44:59;;;;;;;14.43;13.27;;;;;;;21.42;100.00;96793.81;4998399;28;20268;-47
2022/08/27 08:47:30;;;;;;;14.40;13.13;;;;;;;21.84;100.00;96798.28;5006423;28;20239;-52
2022/08/27 08:50:04;;;;;;;14.17;12.97;;;;;;;22.16;100.00;96789.16;4989654;28;20322;-50
2022/08/27 08:52:42;;;;;;;15.47;14.10;;;;;;;22.33;100.00;96788.09;5007384;28;20200;-52
2022/08/27 08:55:18;;;;;;;15.00;13.57;;;;;;;22.67;100.00;96795.66;5004585;28;20227;-48
2022/08/27 08:57:49;;;;;;;14.07;12.70;;;;;;;22.33;100.00;96804.28;4958775;28;20645;-51
2022/08/27 09:00:18;;;;;;;15.07;13.13;;;;;;;22.66;100.00;96796.75;4999835;28;20453;-53
2022/08/27 09:02:52;;;;;;;13.73;12.63;;;;;;;23.23;100.00;96788.47;5005571;28;20512;-46
2022/08/27 09:05:21;;;;;;;13.83;12.77;;;;;;;22.93;100.00;96803.72;4990572;28;20267;-49
2022/08/27 09:07:58;;;;;;;14.30;13.10;;;;;;;22.32;100.00;96798.06;4997220;28;20207;-48
2022/08/27 09:10:50;;;;;;;15.60;14.00;;;;;;;21.96;100.00;96798.00;5003514;28;20207;-52
2022/08/27 09:13:23;;;;;;;14.40;13.10;;;;;;;22.16;100.00;96799.97;4956788;28;20693;-48
2022/08/27 09:15:57;;;;;;;14.83;13.33;;;;;;;22.04;100.00;96796.69;5001906;28;20244;-48
2022/08/27 09:18:26;;;;;;;14.97;12.60;;;;;;;22.50;100.00;96796.72;5006236;28;20291;-51
2022/08/27 09:21:02;;;;;;;13.10;12.17;;;;;;;23.01;100.00;96794.22;4992255;28;20215;-46
2022/08/27 09:23:45;;;;;;;14.90;13.40;;;;;;;23.57;100.00;96787.84;5006112;28;20310;-54
2022/08/27 09:26:19;;;;;;;13.90;12.90;;;;;;;23.60;100.00;96791.88;5001672;28;20398;-53
2022/08/27 09:31:39;;;;;;;14.07;12.90;;;;;;;23.45;100.00;96780.03;4937986;28;22025;-52
2022/08/27 09:34:07;;;;;;;14.90;13.57;;;;;;;24.30;100.00;96782.81;5002850;28;20267;-49
2022/08/27 09:36:35;;;;;;;13.60;12.30;;;;;;;24.57;100.00;96776.91;4977256;28;20394;-50
2022/08/27 09:39:06;;;;;;;12.67;11.57;;;;;;;25.33;100.00;96770.16;4999689;28;20314;-52
2022/08/27 09:41:41;;;;;;;12.87;11.57;;;;;;;25.31;100.00;96766.94;4967290;28;21898;-55
2022/08/27 09:44:12;;;;;;;13.30;12.17;;;;;;;25.34;100.00;96763.63;5004388;28;20579;-48
2022/08/27 09:46:52;;;;;;;14.10;12.67;;;;;;;25.92;100.00;96763.72;4954779;28;20283;-51
2022/08/27 09:49:21;;;;;;;12.23;11.27;;;;;;;25.69;100.00;96771.63;4984013;28;20259;-50
2022/08/27 09:51:49;;;;;;;12.57;11.53;;;;;;;25.40;100.00;96769.81;4996923;28;20216;-49
2022/08/27 09:54:42;;;;;;;11.57;10.30;;;;;;;24.27;100.00;96767.94;4992686;28;20303;-49
2022/08/27 09:57:12;;;;;;;9.30;8.37;;;;;;;24.41;100.00;96762.69;4979178;28;20704;-51
2022/08/27 09:59:43;;;;;;;9.13;8.23;;;;;;;24.67;100.00;96765.16;5001442;28;20475;-52
2022/08/27 10:02:16;;;;;;;9.33;8.60;;;;;;;23.31;100.00;96766.34;4957592;28;20363;-50
2022/08/27 10:04:46;;;;;;;9.60;8.80;;;;;;;23.69;100.00;96761.28;5000905;28;20204;-54
2022/08/27 10:07:28;;;;;;;8.93;8.07;;;;;;;23.78;100.00;96761.47;4973318;28;20267;-52
2022/08/27 10:10:01;;;;;;;10.03;9.13;;;;;;;23.56;100.00;96765.41;4989902;28;20297;-53
2022/08/27 10:12:34;;;;;;;9.53;8.83;;;;;;;23.48;100.00;96757.84;4987955;28;20314;-50
2022/08/27 10:15:04;;;;;;;8.87;8.07;;;;;;;23.25;100.00;96762.03;5000265;28;20389;-52
2022/08/27 10:17:39;;;;;;;9.87;9.03;;;;;;;23.07;100.00;96774.22;4959685;28;20339;-53
2022/08/27 10:20:12;;;;;;;9.33;8.57;;;;;;;22.29;100.00;96768.91;5004947;28;20880;-51
2022/08/27 10:22:54;;;;;;;8.30;7.60;;;;;;;22.59;100.00;96769.22;5000309;28;20267;-51
2022/08/27 10:25:32;;;;;;;9.13;8.43;;;;;;;22.32;100.00;96768.38;5010052;28;20216;-52
2022/08/27 10:28:10;;;;;;;10.97;8.83;;;;;;;21.97;100.00;96781.56;4974539;28;20238;-50
2022/08/27 10:30:58;;;;;;;11.57;10.63;;;;;;;21.71;100.00;96775.34;5003797;28;20233;-51
2022/08/27 10:33:38;;;;;;;9.93;9.13;;;;;;;22.26;100.00;96777.53;4960640;28;20207;-51
2022/08/27 10:36:24;;;;;;;9.87;9.07;;;;;;;21.77;100.00;96781.53;4984339;28;20319;-54
2022/08/27 10:38:57;;;;;;;10.30;9.40;;;;;;;22.59;100.00;96777.31;4994578;28;20680;-49
2022/08/27 10:41:28;;;;;;;9.83;9.00;;;;;;;22.40;100.00;96772.41;4982198;28;20240;-51
2022/08/27 10:44:23;;;;;;;10.93;9.93;;;;;;;22.60;100.00;96770.81;4983297;28;20570;-56
2022/08/27 10:47:01;;;;;;;9.57;8.77;;;;;;;22.29;100.00;96778.91;4976100;28;20463;-53
2022/08/27 10:49:36;;;;;;;10.57;9.63;;;;;;;21.81;100.00;96782.63;4954107;28;21182;-53
2022/08/27 10:52:11;;;;;;;10.53;9.63;;;;;;;22.14;100.00;96785.09;5006682;28;20232;-53
2022/08/27 10:54:42;;;;;;;10.03;9.33;;;;;;;22.03;100.00;96782.41;4994581;28;20291;-51
2022/08/27 10:57:16;;;;;;;11.47;10.37;;;;;;;21.66;100.00;96784.22;4977942;28;20347;-50
2022/08/27 11:00:09;;;;;;;9.97;9.27;;;;;;;21.48;100.00;96779.28;4984440;28;20232;-50
2022/08/27 11:02:42;;;;;;;9.90;8.80;;;;;;;21.29;100.00;96776.25;5007478;28;20201;-49
2022/08/27 11:05:15;;;;;;;9.60;8.87;;;;;;;21.33;100.00;96777.34;4954633;28;20329;-50
2022/08/27 11:07:46;;;;;;;9.97;9.10;;;;;;;21.23;100.00;96788.88;5013528;28;20231;-57
2022/08/27 11:10:19;;;;;;;9.33;8.53;;;;;;;21.26;100.00;96774.88;4998884;28;20294;-54
2022/08/27 11:12:50;;;;;;;8.53;7.93;;;;;;;21.39;100.00;96771.69;4982064;28;20234;-51
2022/08/27 11:15:21;;;;;;;9.43;8.57;;;;;;;21.24;100.00;96777.03;4989653;28;20315;-55
2022/08/27 11:17:55;;;;;;;9.50;8.60;;;;;;;21.33;100.00;96771.94;5010636;28;20264;-52
2022/08/27 11:20:28;;;;;;;9.30;8.60;;;;;;;21.65;100.00;96769.09;4982298;28;20329;-54
2022/08/27 11:23:00;;;;;;;8.00;7.40;;;;;;;21.90;100.00;96772.94;5005387;28;20263;-50
2022/08/27 11:25:38;;;;;;;8.70;8.00;;;;;;;21.95;100.00;96767.56;5011748;28;20204;-55
2022/08/27 11:28:07;;;;;;;7.93;7.30;;;;;;;22.21;100.00;96769.44;4963700;28;20244;-52
2022/08/27 11:30:43;;;;;;;7.30;6.90;;;;;;;22.05;100.00;96766.75;4995871;28;20921;-54
2022/08/27 11:33:16;;;;;;;8.23;7.63;;;;;;;22.53;100.00;96771.88;4940464;28;20739;-53
2022/08/27 11:35:56;;;;;;;7.27;6.77;;;;;;;22.92;100.00;96766.97;4990704;28;20279;-50
2022/08/27 11:38:38;;;;;;;7.80;7.17;;;;;;;23.33;100.00;96766.88;4952378;28;20269;-54